createdAt,value
2023-04-30T00:01:51.329Z,97791.66
2023-04-30T00:06:09.083Z,97794.34
2023-04-30T00:10:26.654Z,97798.19
2023-04-30T00:14:44.406Z,97788.78
2023-04-30T00:19:01.673Z,97791.16
2023-04-30T00:23:19.584Z,97806.69
2023-04-30T00:27:38.859Z,97795.22
2023-04-30T00:31:58.423Z,97807.94
2023-04-30T00:36:15.951Z,97792.53
2023-04-30T00:40:36.301Z,97802.16
2023-04-30T00:44:53.825Z,97799.47
2023-04-30T00:49:11.638Z,97815.19
2023-04-30T00:53:29.482Z,97812.00
2023-04-30T00:57:47.290Z,97800.56
2023-04-30T01:02:05.003Z,97804.19
2023-04-30T01:06:24.387Z,97814.06
2023-04-30T01:10:54.064Z,97805.00
2023-04-30T01:15:18.670Z,97815.31
2023-04-30T01:19:45.152Z,97825.34
2023-04-30T01:24:33.004Z,97829.34
2023-04-30T01:28:53.620Z,97832.28
2023-04-30T01:33:12.510Z,97829.69
2023-04-30T01:38:02.489Z,97839.06
2023-04-30T01:42:23.270Z,97842.94
2023-04-30T01:46:44.494Z,97847.34
2023-04-30T01:51:15.306Z,97843.75
2023-04-30T01:55:47.933Z,97850.09
2023-04-30T02:00:11.061Z,97854.38
2023-04-30T02:04:28.800Z,97852.00
2023-04-30T02:08:46.428Z,97861.63
2023-04-30T02:13:04.165Z,97853.03
2023-04-30T02:17:21.890Z,97857.91
2023-04-30T02:21:39.512Z,97863.66
2023-04-30T02:25:57.026Z,97857.31
2023-04-30T02:30:14.555Z,97863.22
2023-04-30T02:34:32.328Z,97874.78
2023-04-30T02:38:49.938Z,97873.09
2023-04-30T02:43:07.588Z,97871.25
2023-04-30T02:47:25.110Z,97880.31
2023-04-30T02:51:42.976Z,97881.69
2023-04-30T02:56:00.790Z,97883.25
2023-04-30T03:00:18.505Z,97885.06
2023-04-30T03:04:36.049Z,97892.56
2023-04-30T03:08:53.698Z,97896.72
2023-04-30T03:13:11.253Z,97898.53
2023-04-30T03:17:29.439Z,97902.97
2023-04-30T03:21:47.102Z,97906.72
2023-04-30T03:26:04.865Z,97908.63
2023-04-30T03:30:22.577Z,97921.44
2023-04-30T03:34:40.253Z,97918.25
2023-04-30T03:38:57.810Z,97924.16
2023-04-30T03:43:15.929Z,97926.84
2023-04-30T03:47:34.017Z,97936.13
2023-04-30T03:51:52.142Z,97945.53
2023-04-30T03:56:09.792Z,97944.19
2023-04-30T04:00:27.506Z,97952.22
2023-04-30T04:04:45.127Z,97955.41
2023-04-30T04:09:03.655Z,97975.44
2023-04-30T04:13:21.156Z,97978.38
2023-04-30T04:17:39.071Z,97992.75
2023-04-30T04:21:57.742Z,98002.97
2023-04-30T04:26:16.866Z,98008.38
2023-04-30T04:30:34.787Z,98021.19
2023-04-30T04:34:54.620Z,98024.91
2023-04-30T04:39:12.235Z,98033.75
2023-04-30T04:43:29.989Z,98044.84
2023-04-30T04:47:48.462Z,98054.03
2023-04-30T04:52:06.952Z,98069.66
2023-04-30T04:56:24.583Z,98070.69
2023-04-30T05:00:42.298Z,98077.69
2023-04-30T05:04:59.830Z,98078.84
2023-04-30T05:09:18.148Z,98085.19
2023-04-30T05:13:35.732Z,98087.13
2023-04-30T05:17:55.179Z,98104.31
2023-04-30T05:22:12.668Z,98108.66
2023-04-30T05:26:30.355Z,98122.47
2023-04-30T05:30:47.897Z,98121.78
2023-04-30T05:35:06.177Z,98132.69
2023-04-30T05:39:23.665Z,98140.03
2023-04-30T05:43:41.647Z,98149.47
2023-04-30T05:47:59.201Z,98156.50
2023-04-30T05:52:18.011Z,98168.75
2023-04-30T05:56:35.702Z,98168.41
2023-04-30T06:00:53.640Z,98176.00
2023-04-30T06:05:13.367Z,98178.94
2023-04-30T06:09:32.293Z,98177.56
2023-04-30T06:13:49.948Z,98188.25
2023-04-30T06:18:07.938Z,98184.50
2023-04-30T06:22:25.874Z,98181.66
2023-04-30T06:26:43.979Z,98187.31
2023-04-30T06:31:01.434Z,98190.16
2023-04-30T06:35:19.151Z,98194.00
2023-04-30T06:39:36.631Z,98197.88
2023-04-30T06:43:54.396Z,98193.53
2023-04-30T06:48:11.955Z,98199.44
2023-04-30T06:52:30.824Z,98205.06
2023-04-30T06:56:48.957Z,98200.94
2023-04-30T07:01:06.607Z,98185.44
2023-04-30T07:05:24.310Z,98199.06
2023-04-30T07:09:41.886Z,98205.69
2023-04-30T07:13:59.513Z,98211.63
2023-04-30T07:18:17.415Z,98212.38
2023-04-30T07:22:35.422Z,98211.81
2023-04-30T07:26:52.928Z,98211.56
2023-04-30T07:31:10.968Z,98227.34
2023-04-30T07:35:28.608Z,98226.41
2023-04-30T07:39:46.224Z,98239.47
2023-04-30T07:44:03.867Z,98233.59
2023-04-30T07:48:22.622Z,98232.88
2023-04-30T07:52:40.152Z,98243.72
2023-04-30T07:57:00.931Z,98264.97
2023-04-30T08:01:18.507Z,98252.97
2023-04-30T08:05:36.652Z,98270.66
2023-04-30T08:09:54.330Z,98265.41
2023-04-30T08:14:12.226Z,98258.69
2023-04-30T08:18:32.676Z,98278.88
2023-04-30T08:22:50.493Z,98261.31
2023-04-30T08:27:08.271Z,98251.88
2023-04-30T08:31:26.192Z,98261.88
2023-04-30T08:35:44.000Z,98280.50
2023-04-30T08:40:01.496Z,98298.63
2023-04-30T08:44:22.027Z,98290.22
2023-04-30T08:48:40.980Z,98297.81
2023-04-30T08:52:59.952Z,98264.66
2023-04-30T08:57:19.199Z,98271.34
2023-04-30T09:01:36.872Z,98261.91
2023-04-30T09:05:56.119Z,98270.78
2023-04-30T09:10:21.736Z,98272.22
2023-04-30T09:14:40.598Z,98271.34
2023-04-30T09:18:59.796Z,98293.03
2023-04-30T09:23:17.394Z,98279.06
2023-04-30T09:27:35.724Z,98277.38
2023-04-30T09:32:07.502Z,98277.34
2023-04-30T09:36:25.100Z,98291.13
2023-04-30T09:40:42.845Z,98315.75
2023-04-30T09:45:00.558Z,98284.06
2023-04-30T09:49:19.861Z,98293.63
2023-04-30T09:53:43.388Z,98293.03
2023-04-30T09:58:07.465Z,98299.88
2023-04-30T10:02:26.278Z,98307.91
2023-04-30T10:06:44.794Z,98285.78
2023-04-30T10:11:07.609Z,98287.91
2023-04-30T10:15:56.269Z,98296.78
2023-04-30T10:20:15.893Z,98318.78
2023-04-30T10:24:34.889Z,98275.97
2023-04-30T10:28:55.342Z,98311.38
2023-04-30T10:33:22.140Z,98316.13
2023-04-30T10:37:54.051Z,98282.97
2023-04-30T10:42:12.019Z,98315.66
2023-04-30T10:46:29.719Z,98301.75
2023-04-30T10:50:47.653Z,98280.25
2023-04-30T10:55:08.962Z,98284.66
2023-04-30T10:59:28.826Z,98306.03
2023-04-30T11:04:11.352Z,98270.88
2023-04-30T11:08:42.954Z,98254.56
2023-04-30T11:13:06.468Z,98245.53
2023-04-30T11:17:25.128Z,98258.78
2023-04-30T11:22:05.831Z,98247.25
2023-04-30T11:26:24.076Z,98251.34
2023-04-30T11:30:51.126Z,98254.56
2023-04-30T11:35:09.312Z,98263.78
2023-04-30T11:39:29.551Z,98249.44
2023-04-30T11:43:47.293Z,98270.47
2023-04-30T11:48:04.949Z,98290.13
2023-04-30T11:52:26.157Z,98332.72
2023-04-30T11:56:51.168Z,98344.75
2023-04-30T12:01:10.439Z,98352.84
2023-04-30T12:05:28.388Z,98371.16
2023-04-30T12:09:55.383Z,98381.28
2023-04-30T12:14:14.835Z,98404.84
2023-04-30T12:18:33.986Z,98407.78
2023-04-30T12:22:52.051Z,98408.34
2023-04-30T12:27:10.253Z,98400.44
2023-04-30T12:31:28.372Z,98395.47
2023-04-30T12:35:46.375Z,98375.09
2023-04-30T12:40:04.479Z,98356.81
2023-04-30T12:44:28.157Z,98351.41
2023-04-30T12:48:45.912Z,98319.19
2023-04-30T12:53:05.242Z,98292.16
2023-04-30T12:57:22.869Z,98261.25
2023-04-30T13:01:45.952Z,98255.09
2023-04-30T13:06:04.938Z,98316.22
2023-04-30T13:10:23.388Z,98470.38
2023-04-30T13:14:41.019Z,98659.81
2023-04-30T13:18:58.996Z,98837.44
2023-04-30T13:23:16.811Z,98973.56
2023-04-30T13:27:34.740Z,99140.19
2023-04-30T13:31:52.601Z,99273.25
2023-04-30T13:36:10.565Z,99586.47
2023-04-30T13:40:28.253Z,99918.97
2023-04-30T13:44:48.309Z,100314.97
2023-04-30T13:49:05.999Z,100646.66
2023-04-30T13:53:23.821Z,100962.09
2023-04-30T13:57:41.308Z,101100.63
2023-04-30T14:01:59.215Z,101118.38
2023-04-30T14:06:16.909Z,100969.31
2023-04-30T14:10:34.635Z,100558.22
2023-04-30T14:14:52.715Z,100497.66
2023-04-30T14:19:10.890Z,100317.09
2023-04-30T14:23:29.280Z,99787.09
2023-04-30T14:27:47.749Z,99505.75
2023-04-30T14:32:06.832Z,99168.13
2023-04-30T14:36:24.771Z,98407.44
2023-04-30T14:40:44.341Z,98278.06
2023-04-30T14:45:02.160Z,98263.78
2023-04-30T14:49:19.863Z,98263.66
2023-04-30T14:53:37.921Z,98260.41
2023-04-30T14:57:56.238Z,98259.78
2023-04-30T15:02:14.600Z,98260.97
2023-04-30T15:06:32.338Z,98248.03
2023-04-30T15:10:50.977Z,98247.72
2023-04-30T15:15:09.254Z,98257.72
2023-04-30T15:19:27.132Z,98263.38
2023-04-30T15:23:44.581Z,98247.78
2023-04-30T15:28:02.530Z,98250.03
2023-04-30T15:32:20.835Z,98243.50
2023-04-30T15:36:39.269Z,98245.88
2023-04-30T15:40:57.579Z,98245.19
2023-04-30T15:45:15.359Z,98249.19
2023-04-30T15:49:33.186Z,98242.38
2023-04-30T15:53:50.827Z,98240.03
2023-04-30T15:58:08.760Z,98240.41
2023-04-30T16:02:26.233Z,98235.09
2023-04-30T16:06:44.228Z,98250.22
2023-04-30T16:11:01.943Z,98233.72
2023-04-30T16:15:19.740Z,98240.78
2023-04-30T16:19:37.261Z,98234.94
2023-04-30T16:23:55.074Z,98233.47
2023-04-30T16:28:12.683Z,98236.28
2023-04-30T16:32:30.541Z,98243.53
2023-04-30T16:36:48.355Z,98241.22
2023-04-30T16:41:06.154Z,98250.03
2023-04-30T16:45:23.811Z,98248.56
2023-04-30T16:49:41.415Z,98250.50
2023-04-30T16:53:58.976Z,98238.50
2023-04-30T16:58:16.860Z,98243.41
2023-04-30T17:02:34.757Z,98241.00
2023-04-30T17:06:52.865Z,98249.06
2023-04-30T17:11:10.340Z,98255.97
2023-04-30T17:15:28.807Z,98263.47
2023-04-30T17:19:46.462Z,98261.19
2023-04-30T17:24:05.599Z,98269.59
2023-04-30T17:28:24.095Z,98276.75
2023-04-30T17:32:42.208Z,98278.22
2023-04-30T17:36:59.667Z,98284.69
2023-04-30T17:41:18.990Z,98290.91
2023-04-30T17:45:36.594Z,98297.03
2023-04-30T17:49:54.333Z,98301.25
2023-04-30T17:54:12.025Z,98300.78
2023-04-30T17:58:30.731Z,98299.19
2023-04-30T18:02:48.599Z,98308.72
2023-04-30T18:07:08.452Z,98305.28
2023-04-30T18:11:26.006Z,98310.16
2023-04-30T18:15:43.738Z,98315.25
2023-04-30T18:20:01.922Z,98317.94
2023-04-30T18:24:20.531Z,98317.59
2023-04-30T18:28:38.208Z,98328.44
2023-04-30T18:32:56.547Z,98329.13
2023-04-30T18:37:14.316Z,98328.56
2023-04-30T18:41:32.429Z,98329.13
2023-04-30T18:45:49.993Z,98334.53
2023-04-30T18:50:10.967Z,98338.16
2023-04-30T18:54:28.548Z,98340.59
2023-04-30T18:58:47.326Z,98338.16
2023-04-30T19:03:05.209Z,98345.31
2023-04-30T19:07:22.890Z,98346.63
2023-04-30T19:11:40.478Z,98354.94
2023-04-30T19:15:59.665Z,98356.88
2023-04-30T19:20:17.547Z,98355.16
2023-04-30T19:24:35.364Z,98356.06
2023-04-30T19:28:53.010Z,98361.81
2023-04-30T19:33:12.584Z,98361.16
2023-04-30T19:37:31.227Z,98374.13
2023-04-30T19:41:50.074Z,98371.81
2023-04-30T19:46:07.909Z,98375.31
2023-04-30T19:50:25.944Z,98374.19
2023-04-30T19:54:48.653Z,98369.47
2023-04-30T19:59:06.391Z,98377.22
2023-04-30T20:03:25.497Z,98384.59
2023-04-30T20:07:43.539Z,98379.03
2023-04-30T20:12:02.880Z,98383.44
2023-04-30T20:16:21.073Z,98381.94
2023-04-30T20:20:38.907Z,98377.06
2023-04-30T20:24:57.003Z,98388.59
2023-04-30T20:29:14.818Z,98388.13
2023-04-30T20:33:32.985Z,98385.38
2023-04-30T20:37:54.976Z,98396.34
2023-04-30T20:42:16.569Z,98393.06
2023-04-30T20:46:34.619Z,98384.47
2023-04-30T20:50:52.258Z,98392.28
2023-04-30T20:55:11.050Z,98393.44
2023-04-30T20:59:28.777Z,98400.97
2023-04-30T21:03:46.584Z,98396.00
2023-04-30T21:08:04.328Z,98402.31
2023-04-30T21:12:22.392Z,98396.00
2023-04-30T21:16:41.028Z,98409.84
2023-04-30T21:21:05.927Z,98401.97
2023-04-30T21:25:23.737Z,98406.75
2023-04-30T21:29:44.451Z,98412.44
2023-04-30T21:34:02.322Z,98416.78
2023-04-30T21:38:20.050Z,98414.00
2023-04-30T21:42:37.804Z,98411.94
2023-04-30T21:46:55.726Z,98416.03
2023-04-30T21:51:15.226Z,98418.97
2023-04-30T21:55:33.149Z,98433.38
2023-04-30T21:59:51.163Z,98439.22
2023-04-30T22:04:08.921Z,98451.13
2023-04-30T22:08:26.968Z,98455.81
2023-04-30T22:12:47.414Z,98457.03
2023-04-30T22:17:05.634Z,98454.56
2023-04-30T22:21:23.253Z,98457.81
2023-04-30T22:25:40.995Z,98461.44
2023-04-30T22:29:59.223Z,98464.13
2023-04-30T22:34:19.673Z,98469.25
2023-04-30T22:38:37.258Z,98473.00
2023-04-30T22:42:55.127Z,98470.69
2023-04-30T22:47:13.108Z,98471.31
2023-04-30T22:51:32.052Z,98476.19
2023-04-30T22:55:50.568Z,98469.53
2023-04-30T23:00:10.151Z,98462.47
2023-04-30T23:04:28.849Z,98472.41
2023-04-30T23:08:46.645Z,98475.03
2023-04-30T23:13:06.701Z,98479.44
2023-04-30T23:17:27.309Z,98476.16
2023-04-30T23:21:45.612Z,98472.63
2023-04-30T23:26:04.293Z,98467.59
2023-04-30T23:30:24.026Z,98473.44
2023-04-30T23:34:41.571Z,98474.31
2023-04-30T23:38:59.523Z,98477.34
2023-04-30T23:43:17.049Z,98481.47
2023-04-30T23:47:36.999Z,98486.06
2023-04-30T23:51:54.660Z,98482.38
2023-04-30T23:56:12.367Z,98478.75
